createdAt,value
2023-03-16T00:01:09.364Z,17.10
2023-03-16T00:03:36.936Z,17.00
2023-03-16T00:06:04.468Z,17.10
2023-03-16T00:08:34.524Z,17.10
2023-03-16T00:11:12.366Z,17.10
2023-03-16T00:13:41.361Z,17.00
2023-03-16T00:16:10.535Z,17.10
2023-03-16T00:18:39.367Z,17.00
2023-03-16T00:21:06.994Z,17.10
2023-03-16T00:23:37.949Z,17.10
2023-03-16T00:26:10.054Z,17.10
2023-03-16T00:28:37.492Z,17.10
2023-03-16T00:31:11.993Z,17.10
2023-03-16T00:33:43.253Z,17.00
2023-03-16T00:36:11.944Z,17.00
2023-03-16T00:38:46.188Z,17.10
2023-03-16T00:41:16.150Z,17.10
2023-03-16T00:43:45.621Z,17.10
2023-03-16T00:46:16.214Z,17.10
2023-03-16T00:48:45.864Z,17.10
2023-03-16T00:51:16.711Z,17.10
2023-03-16T00:53:46.582Z,17.10
2023-03-16T00:56:14.625Z,17.10
2023-03-16T00:58:51.052Z,17.00
2023-03-16T01:01:20.019Z,17.00
2023-03-16T01:03:49.775Z,17.10
2023-03-16T01:06:20.422Z,17.10
2023-03-16T01:08:51.800Z,17.10
2023-03-16T01:11:24.360Z,17.10
2023-03-16T01:13:54.363Z,17.00
2023-03-16T01:16:24.867Z,17.10
2023-03-16T01:18:53.530Z,17.10
2023-03-16T01:21:21.860Z,17.00
2023-03-16T01:23:53.320Z,17.00
2023-03-16T01:26:21.666Z,17.00
2023-03-16T01:28:52.557Z,17.00
2023-03-16T01:31:19.767Z,17.00
2023-03-16T01:33:46.833Z,17.00
2023-03-16T01:36:19.874Z,17.00
2023-03-16T01:38:54.262Z,17.00
2023-03-16T01:41:27.369Z,17.00
2023-03-16T01:43:58.675Z,17.00
2023-03-16T01:46:34.743Z,17.00
2023-03-16T01:49:20.518Z,17.00
2023-03-16T01:52:00.274Z,17.00
2023-03-16T01:54:40.226Z,17.00
2023-03-16T01:57:15.130Z,17.00
2023-03-16T01:59:49.317Z,17.00
2023-03-16T02:02:21.238Z,16.90
2023-03-16T02:05:02.077Z,17.00
2023-03-16T02:07:37.144Z,16.90
2023-03-16T02:10:09.165Z,16.90
2023-03-16T02:12:36.362Z,16.90
2023-03-16T02:15:06.809Z,17.00
2023-03-16T02:17:36.573Z,16.90
2023-03-16T02:20:35.510Z,16.90
2023-03-16T02:23:05.132Z,16.90
2023-03-16T02:25:47.871Z,16.90
2023-03-16T02:28:25.390Z,16.90
2023-03-16T02:30:53.619Z,16.90
2023-03-16T02:33:22.575Z,16.90
2023-03-16T02:35:50.726Z,16.90
2023-03-16T02:38:17.772Z,16.80
2023-03-16T02:41:01.505Z,16.90
2023-03-16T02:43:34.913Z,16.90
2023-03-16T02:46:14.092Z,16.90
2023-03-16T02:48:44.650Z,16.90
2023-03-16T02:51:12.535Z,16.90
2023-03-16T02:53:43.637Z,16.90
2023-03-16T02:57:27.602Z,16.90
2023-03-16T03:00:01.416Z,16.90
2023-03-16T03:02:39.504Z,16.90
2023-03-16T03:05:11.003Z,16.80
2023-03-16T03:07:38.976Z,16.80
2023-03-16T03:10:11.314Z,16.80
2023-03-16T03:12:41.584Z,16.80
2023-03-16T03:15:10.782Z,16.80
2023-03-16T03:17:49.108Z,16.80
2023-03-16T03:20:17.781Z,16.80
2023-03-16T03:22:50.482Z,16.80
2023-03-16T03:25:18.898Z,16.80
2023-03-16T03:27:49.006Z,16.80
2023-03-16T03:30:21.755Z,16.80
2023-03-16T03:32:49.230Z,16.80
2023-03-16T03:35:19.242Z,16.80
2023-03-16T03:37:48.279Z,16.80
2023-03-16T03:40:17.979Z,16.80
2023-03-16T03:42:48.349Z,16.80
2023-03-16T03:45:19.363Z,16.80
2023-03-16T03:47:49.485Z,16.80
2023-03-16T03:50:20.703Z,16.80
2023-03-16T03:53:19.785Z,16.70
2023-03-16T03:56:26.556Z,16.80
2023-03-16T03:58:53.973Z,16.70
2023-03-16T04:01:41.024Z,16.70
2023-03-16T04:04:10.669Z,16.70
2023-03-16T04:06:40.341Z,16.70
2023-03-16T04:09:08.516Z,16.70
2023-03-16T04:11:37.768Z,16.70
2023-03-16T04:14:07.704Z,16.70
2023-03-16T04:16:37.090Z,16.70
2023-03-16T04:19:07.266Z,16.70
2023-03-16T04:21:36.352Z,16.70
2023-03-16T04:24:05.301Z,16.70
2023-03-16T04:26:35.428Z,16.70
2023-03-16T04:29:04.286Z,16.70
2023-03-16T04:31:33.611Z,16.70
2023-03-16T04:34:02.793Z,16.70
2023-03-16T04:36:33.539Z,16.70
2023-03-16T04:39:04.954Z,16.70
2023-03-16T04:41:32.338Z,16.70
2023-03-16T04:44:10.196Z,16.70
2023-03-16T04:46:39.932Z,16.70
2023-03-16T04:49:16.134Z,16.60
2023-03-16T04:51:45.537Z,16.60
2023-03-16T04:54:18.661Z,16.60
2023-03-16T04:56:49.528Z,16.60
2023-03-16T04:59:37.048Z,16.60
2023-03-16T05:02:23.601Z,16.60
2023-03-16T05:04:51.045Z,16.60
2023-03-16T05:07:21.367Z,16.60
2023-03-16T05:09:53.707Z,16.60
2023-03-16T05:12:21.361Z,16.60
2023-03-16T05:14:53.307Z,16.60
2023-03-16T05:17:31.138Z,16.60
2023-03-16T05:19:58.491Z,16.60
2023-03-16T05:22:26.105Z,16.60
2023-03-16T05:25:16.051Z,16.60
2023-03-16T05:27:49.802Z,16.60
2023-03-16T05:30:24.544Z,16.60
2023-03-16T05:32:55.119Z,16.60
2023-03-16T05:35:28.242Z,16.60
2023-03-16T05:38:00.208Z,16.60
2023-03-16T05:40:29.711Z,16.60
2023-03-16T05:48:40.474Z,16.60
2023-03-16T05:51:12.022Z,16.60
2023-03-16T05:53:42.437Z,16.60
2023-03-16T06:09:06.341Z,16.50
2023-03-16T06:11:49.270Z,16.60
2023-03-16T06:15:38.292Z,16.60
2023-03-16T06:18:24.086Z,16.50
2023-03-16T06:20:57.296Z,16.50
2023-03-16T06:28:19.096Z,16.50
2023-03-16T06:31:15.685Z,16.50
2023-03-16T06:34:14.223Z,16.50
2023-03-16T06:42:27.561Z,16.50
2023-03-16T08:05:02.232Z,16.60
2023-03-16T12:08:20.908Z,16.90
2023-03-16T12:12:29.898Z,17.00
2023-03-16T12:31:04.298Z,16.90
2023-03-16T12:51:00.077Z,17.00
2023-03-16T12:52:25.498Z,17.00
2023-03-16T12:55:28.481Z,17.00
2023-03-16T12:58:52.184Z,17.00
2023-03-16T13:01:30.729Z,17.00
2023-03-16T13:04:32.682Z,17.00
2023-03-16T13:07:26.019Z,16.90
2023-03-16T13:10:37.310Z,17.00
2023-03-16T13:13:33.504Z,17.00
2023-03-16T13:16:51.892Z,17.00
2023-03-16T13:19:57.280Z,17.00
2023-03-16T13:33:19.009Z,17.00
2023-03-16T14:08:46.753Z,17.10
2023-03-16T14:26:03.348Z,17.00
2023-03-16T14:42:56.118Z,17.10
2023-03-16T15:21:23.812Z,17.20
2023-03-16T15:41:24.862Z,17.10
2023-03-16T16:02:45.146Z,17.10
2023-03-16T16:41:15.960Z,17.10
2023-03-16T16:52:36.944Z,17.10
2023-03-16T17:45:51.825Z,17.10
2023-03-16T17:48:46.088Z,17.20
2023-03-16T17:51:44.887Z,17.10
2023-03-16T18:13:49.822Z,17.10
2023-03-16T18:25:59.700Z,17.10
2023-03-16T19:28:37.451Z,17.10
2023-03-16T19:34:37.084Z,17.20
2023-03-16T19:37:30.338Z,17.10
2023-03-16T19:41:00.970Z,17.10
2023-03-16T19:51:35.868Z,17.10
2023-03-16T19:55:38.901Z,17.20
2023-03-16T20:17:19.306Z,17.10
2023-03-16T20:24:40.269Z,17.10
2023-03-16T20:28:48.606Z,17.10
2023-03-16T21:18:08.037Z,17.10
2023-03-16T21:27:33.331Z,17.00
2023-03-16T21:31:00.224Z,17.00
2023-03-16T21:34:25.353Z,17.10
2023-03-16T21:37:47.681Z,17.10
2023-03-16T21:50:18.487Z,17.00
2023-03-16T21:53:18.173Z,17.10
2023-03-16T21:55:46.120Z,17.00
2023-03-16T21:58:16.411Z,17.00
2023-03-16T22:01:23.409Z,17.00
2023-03-16T22:04:06.251Z,17.00
2023-03-16T22:06:37.020Z,17.00
2023-03-16T22:09:04.826Z,17.00
2023-03-16T22:11:47.697Z,17.00
2023-03-16T22:14:17.969Z,17.00
2023-03-16T22:20:00.375Z,17.00
2023-03-16T22:25:31.452Z,17.00
2023-03-16T22:28:04.235Z,17.00
2023-03-16T22:30:37.886Z,17.00
2023-03-16T22:33:18.447Z,17.00
2023-03-16T22:36:15.026Z,17.00
2023-03-16T22:38:43.104Z,17.00
2023-03-16T22:41:14.578Z,17.00
2023-03-16T22:43:44.700Z,17.00
2023-03-16T22:46:24.160Z,17.00
2023-03-16T22:48:55.080Z,17.00
2023-03-16T22:51:37.344Z,17.00
2023-03-16T22:54:09.367Z,17.00
2023-03-16T22:56:37.634Z,16.90
2023-03-16T22:59:09.256Z,16.90
2023-03-16T23:01:48.210Z,17.00
2023-03-16T23:04:19.377Z,17.00
2023-03-16T23:06:56.649Z,16.90
2023-03-16T23:09:27.353Z,17.00
2023-03-16T23:11:56.597Z,16.90
2023-03-16T23:14:36.690Z,17.00
2023-03-16T23:17:03.974Z,17.00
2023-03-16T23:19:34.382Z,16.90
2023-03-16T23:22:06.966Z,17.00
2023-03-16T23:24:35.478Z,17.00
2023-03-16T23:27:03.733Z,17.00
2023-03-16T23:29:32.416Z,17.00
2023-03-16T23:31:59.683Z,17.00
2023-03-16T23:34:27.078Z,16.90
2023-03-16T23:36:57.485Z,16.90
2023-03-16T23:39:29.227Z,17.00
2023-03-16T23:41:56.499Z,16.90
2023-03-16T23:44:42.176Z,16.90
2023-03-16T23:47:14.088Z,16.90
2023-03-16T23:49:45.256Z,16.90
2023-03-16T23:52:13.882Z,16.90
2023-03-16T23:54:42.223Z,16.90
2023-03-16T23:57:10.106Z,16.90
2023-03-16T23:59:40.900Z,16.90
